Swastika, Canada
Current Conditions -  °F | °C
As of 7:00 PM on Wednesday 22 Oct 2014 (Local Time) from CYXR Reporting Station
Clear Clear  
Wind Chill: 45°   Ceiling: Unl
Heat Index: 45°   Visibility: 9mi
Dew Point: 30°   Wind: 2mph
Humidity: 57%   Direction: 340°NNW
Pressure: 30.32"   Gusts: NA
Location:  48.1°N, 80.1°W
Report Text: CYXR 222300Z AUTO 34002KT 9SM CLR 07/M01 A3032 RMK SLP279
Loading
Personal Weather Stations






























Interactive Weather Map
Tropical Storm Tracking
New forecast layout! Learn more

10-Day Weather Forecast

Advertisements
Track Severe Weather on mobile